createdAt,value
2022-11-04T00:02:06.777Z,87.40
2022-11-04T00:04:33.554Z,87.50
2022-11-04T00:07:00.300Z,87.40
2022-11-04T00:09:30.558Z,87.40
2022-11-04T00:12:16.297Z,87.20
2022-11-04T00:14:43.144Z,87.30
2022-11-04T00:17:24.922Z,87.30
2022-11-04T00:20:13.467Z,87.40
2022-11-04T00:22:59.965Z,87.30
2022-11-04T00:25:45.407Z,87.40
2022-11-04T00:28:33.624Z,87.50
2022-11-04T00:31:19.653Z,87.30
2022-11-04T00:33:47.359Z,87.70
2022-11-04T00:36:14.092Z,87.60
2022-11-04T00:38:40.884Z,87.80
2022-11-04T00:41:26.142Z,87.80
2022-11-04T00:43:57.120Z,87.70
2022-11-04T00:46:23.881Z,87.70
2022-11-04T00:48:50.590Z,87.80
2022-11-04T00:51:17.404Z,87.90
2022-11-04T00:53:44.187Z,87.60
2022-11-04T00:56:10.920Z,87.70
2022-11-04T00:58:37.636Z,87.70
2022-11-04T01:01:08.824Z,87.70
2022-11-04T01:03:35.612Z,88.40
2022-11-04T01:06:02.330Z,87.60
2022-11-04T01:08:29.034Z,87.80
2022-11-04T01:10:55.763Z,87.80
2022-11-04T01:13:22.498Z,87.70
2022-11-04T01:15:49.189Z,88.00
2022-11-04T01:18:15.896Z,87.90
2022-11-04T01:20:42.623Z,88.60
2022-11-04T01:23:09.399Z,87.90
2022-11-04T01:25:40.349Z,88.00
2022-11-04T01:28:07.846Z,88.10
2022-11-04T01:30:34.775Z,88.00
2022-11-04T01:33:01.492Z,88.00
2022-11-04T01:35:28.497Z,87.80
2022-11-04T01:37:55.194Z,88.10
2022-11-04T01:40:21.977Z,88.10
2022-11-04T01:42:48.754Z,88.20
2022-11-04T01:45:16.431Z,88.20
2022-11-04T01:47:44.970Z,88.30
2022-11-04T01:50:14.595Z,88.30
2022-11-04T01:53:06.784Z,88.40
2022-11-04T01:55:43.820Z,88.40
2022-11-04T01:58:12.630Z,88.60
2022-11-04T02:00:39.721Z,88.80
2022-11-04T02:03:09.239Z,88.90
2022-11-04T02:05:36.235Z,89.00
2022-11-04T02:08:04.128Z,88.90
2022-11-04T02:10:31.517Z,88.90
2022-11-04T02:13:00.274Z,88.90
2022-11-04T02:15:31.944Z,88.90
2022-11-04T02:18:07.356Z,88.70
2022-11-04T02:20:52.642Z,88.70
2022-11-04T02:23:28.077Z,88.40
2022-11-04T02:26:25.210Z,88.50
2022-11-04T02:29:20.846Z,88.70
2022-11-04T02:32:08.902Z,89.30
2022-11-04T02:34:50.165Z,89.00
2022-11-04T02:37:24.825Z,89.00
2022-11-04T02:39:55.300Z,88.90
2022-11-04T02:42:26.474Z,89.10
2022-11-04T02:45:26.860Z,88.80
2022-11-04T02:48:18.608Z,89.20
2022-11-04T02:51:24.696Z,89.30
2022-11-04T02:54:10.485Z,89.60
2022-11-04T02:56:40.108Z,89.50
2022-11-04T02:59:10.788Z,89.40
2022-11-04T03:01:39.298Z,89.00
2022-11-04T03:04:18.057Z,88.90
2022-11-04T03:06:45.619Z,88.80
2022-11-04T03:09:13.041Z,89.00
2022-11-04T03:11:41.133Z,88.70
2022-11-04T03:14:10.752Z,88.60
2022-11-04T03:16:52.717Z,88.80
2022-11-04T03:19:38.045Z,88.90
2022-11-04T03:22:12.643Z,88.90
2022-11-04T03:24:39.653Z,88.90
2022-11-04T03:27:43.343Z,88.90
2022-11-04T03:30:12.465Z,88.80
2022-11-04T03:33:01.263Z,88.70
2022-11-04T03:35:28.004Z,88.60
2022-11-04T03:37:54.742Z,88.60
2022-11-04T03:40:21.490Z,88.60
2022-11-04T03:42:57.037Z,88.30
2022-11-04T03:45:24.273Z,89.20
2022-11-04T03:47:51.516Z,88.40
2022-11-04T03:50:28.012Z,88.50
2022-11-04T03:52:54.950Z,88.60
2022-11-04T03:55:23.726Z,88.70
2022-11-04T03:58:08.409Z,88.80
2022-11-04T04:00:41.449Z,88.70
2022-11-04T04:03:34.005Z,88.60
2022-11-04T04:06:06.761Z,88.50
2022-11-04T04:08:52.159Z,88.60
2022-11-04T04:11:23.965Z,88.50
2022-11-04T04:13:59.252Z,88.70
2022-11-04T04:16:39.886Z,88.90
2022-11-04T04:19:14.338Z,88.90
2022-11-04T04:21:52.380Z,89.00
2022-11-04T04:24:38.776Z,88.90
2022-11-04T04:27:23.991Z,89.20
2022-11-04T04:29:51.211Z,89.40
2022-11-04T04:32:17.918Z,89.50
2022-11-04T04:34:44.634Z,89.60
2022-11-04T04:37:24.269Z,89.60
2022-11-04T04:40:14.669Z,89.90
2022-11-04T04:43:00.026Z,90.10
2022-11-04T04:45:36.866Z,90.20
2022-11-04T04:48:03.816Z,90.30
2022-11-04T04:50:39.809Z,89.50
2022-11-04T04:53:06.901Z,89.80
2022-11-04T04:55:38.902Z,89.80
2022-11-04T04:58:08.484Z,89.80
2022-11-04T05:00:35.292Z,89.70
2022-11-04T05:03:02.053Z,89.50
2022-11-04T05:05:28.918Z,89.60
2022-11-04T05:07:55.622Z,89.40
2022-11-04T05:10:22.342Z,89.40
2022-11-04T05:13:07.759Z,89.50
2022-11-04T05:15:34.661Z,90.20
2022-11-04T05:18:01.980Z,89.90
2022-11-04T05:20:34.292Z,89.90
2022-11-04T05:23:01.260Z,90.10
2022-11-04T05:25:27.965Z,90.00
2022-11-04T05:27:54.732Z,90.10
2022-11-04T05:30:21.425Z,89.90
2022-11-04T05:32:48.146Z,89.70
2022-11-04T05:35:14.921Z,89.80
2022-11-04T05:37:41.861Z,90.00
2022-11-04T05:40:09.140Z,90.10
2022-11-04T05:42:36.855Z,90.10
2022-11-04T05:45:04.404Z,90.10
2022-11-04T05:47:31.156Z,90.00
2022-11-04T05:49:57.864Z,90.40
2022-11-04T05:52:24.591Z,90.10
2022-11-04T05:54:51.301Z,90.10
2022-11-04T05:57:18.019Z,90.10
2022-11-04T05:59:45.343Z,89.90
2022-11-04T06:02:12.166Z,89.90
2022-11-04T06:04:39.355Z,90.00
2022-11-04T06:07:06.088Z,90.00
2022-11-04T06:09:41.766Z,90.00
2022-11-04T06:12:09.593Z,89.90
2022-11-04T06:14:36.463Z,89.50
2022-11-04T06:17:03.483Z,89.60
2022-11-04T06:19:30.271Z,89.50
2022-11-04T06:21:57.057Z,89.50
2022-11-04T06:24:23.846Z,89.60
2022-11-04T06:26:50.606Z,89.70
2022-11-04T06:29:17.489Z,89.80
2022-11-04T06:31:44.530Z,90.00
2022-11-04T06:34:11.275Z,90.00
2022-11-04T06:36:38.036Z,90.00
2022-11-04T06:39:06.415Z,90.10
2022-11-04T06:41:33.278Z,90.20
2022-11-04T06:44:00.058Z,90.60
2022-11-04T06:46:40.359Z,90.30
2022-11-04T06:49:07.817Z,90.40
2022-11-04T06:51:34.546Z,90.40
2022-11-04T06:54:01.338Z,90.30
2022-11-04T06:56:28.098Z,90.20
2022-11-04T06:58:55.052Z,90.10
2022-11-04T07:01:23.580Z,90.10
2022-11-04T07:03:57.520Z,90.00
2022-11-04T07:06:24.544Z,90.10
2022-11-04T07:08:51.901Z,90.00
2022-11-04T07:11:22.262Z,90.10
2022-11-04T07:13:49.279Z,90.00
2022-11-04T07:16:16.365Z,90.00
2022-11-04T07:18:43.270Z,90.00
2022-11-04T07:21:10.615Z,90.00
2022-11-04T07:23:37.413Z,89.80
2022-11-04T07:26:05.287Z,89.60
2022-11-04T07:28:32.367Z,89.50
2022-11-04T07:30:59.935Z,89.30
2022-11-04T07:33:27.056Z,89.00
2022-11-04T07:35:57.175Z,88.90
2022-11-04T07:38:25.081Z,88.80
2022-11-04T07:40:51.838Z,88.70
2022-11-04T07:43:19.122Z,88.30
2022-11-04T07:45:45.940Z,88.40
2022-11-04T07:48:12.679Z,88.60
2022-11-04T07:50:40.574Z,88.40
2022-11-04T07:53:07.883Z,88.50
2022-11-04T07:55:42.920Z,88.40
2022-11-04T07:58:10.355Z,88.30
2022-11-04T08:00:37.104Z,88.30
2022-11-04T08:03:03.936Z,88.20
2022-11-04T08:05:30.698Z,88.20
2022-11-04T08:07:57.913Z,88.20
2022-11-04T08:10:25.452Z,88.10
2022-11-04T08:12:52.767Z,88.00
2022-11-04T08:15:19.767Z,88.00
2022-11-04T08:17:46.486Z,87.80
2022-11-04T08:20:13.231Z,89.20
2022-11-04T08:22:40.054Z,89.60
2022-11-04T08:25:07.035Z,89.70
2022-11-04T08:27:34.581Z,89.10
2022-11-04T08:30:01.344Z,89.20
2022-11-04T08:32:28.063Z,89.30
2022-11-04T08:34:54.799Z,89.40
2022-11-04T08:37:21.522Z,89.40
2022-11-04T08:39:48.309Z,89.40
2022-11-04T08:42:15.306Z,89.80
2022-11-04T08:44:42.893Z,89.80
2022-11-04T08:47:10.278Z,89.00
2022-11-04T08:49:40.047Z,88.90
2022-11-04T08:52:06.840Z,89.00
2022-11-04T08:54:34.120Z,89.10
2022-11-04T08:57:01.096Z,89.20
2022-11-04T08:59:27.909Z,89.30
2022-11-04T09:01:54.724Z,89.50
2022-11-04T09:04:26.457Z,89.60
2022-11-04T09:06:56.212Z,90.00
2022-11-04T09:09:23.962Z,89.90
2022-11-04T09:11:50.745Z,89.90
2022-11-04T09:14:18.059Z,90.10
2022-11-04T09:16:44.790Z,90.20
2022-11-04T09:19:11.532Z,90.10
2022-11-04T09:21:38.228Z,90.10
2022-11-04T09:24:06.083Z,90.10
2022-11-04T09:26:32.891Z,90.30
2022-11-04T09:29:00.184Z,90.40
2022-11-04T09:31:29.072Z,90.30
2022-11-04T09:33:56.769Z,90.20
2022-11-04T09:36:23.950Z,90.10
2022-11-04T09:38:51.191Z,90.10
2022-11-04T09:41:51.493Z,89.60
2022-11-04T09:44:24.515Z,90.10
2022-11-04T09:46:52.752Z,90.10
2022-11-04T09:49:20.017Z,89.90
2022-11-04T09:51:54.319Z,90.10
2022-11-04T09:54:27.626Z,89.40
2022-11-04T09:56:55.693Z,89.40
2022-11-04T09:59:29.530Z,89.20
2022-11-04T10:02:12.425Z,88.40
2022-11-04T10:04:44.821Z,87.80
2022-11-04T10:07:30.534Z,87.80
2022-11-04T10:10:15.714Z,88.80
2022-11-04T10:13:04.431Z,89.40
2022-11-04T10:16:01.723Z,89.10
2022-11-04T10:18:31.227Z,88.80
2022-11-04T10:21:01.399Z,89.20
2022-11-04T10:23:53.861Z,89.50
2022-11-04T10:26:41.925Z,90.20
2022-11-04T10:29:13.794Z,90.20
2022-11-04T10:31:40.531Z,89.80
2022-11-04T10:34:23.242Z,89.40
2022-11-04T10:36:50.022Z,90.10
2022-11-04T10:39:27.268Z,90.10
2022-11-04T10:41:54.010Z,90.10
2022-11-04T10:44:24.740Z,90.10
2022-11-04T10:47:25.729Z,90.00
2022-11-04T10:50:27.149Z,90.20
2022-11-04T10:52:44.602Z,90.00
2022-11-04T10:55:41.363Z,89.80
2022-11-04T10:58:19.945Z,89.20
2022-11-04T11:00:46.718Z,89.20
2022-11-04T11:03:27.545Z,89.40
2022-11-04T11:05:57.151Z,89.50
2022-11-04T11:08:30.989Z,89.30
2022-11-04T11:10:57.819Z,89.20
2022-11-04T11:13:34.063Z,89.30
2022-11-04T11:16:09.734Z,89.20
2022-11-04T11:18:38.416Z,89.20
2022-11-04T11:21:10.758Z,89.30
2022-11-04T11:23:51.383Z,89.00
2022-11-04T11:26:29.969Z,89.10
2022-11-04T11:29:02.217Z,88.70
2022-11-04T11:31:39.127Z,88.40
2022-11-04T11:34:07.410Z,88.40
2022-11-04T11:36:34.860Z,88.30
2022-11-04T11:39:11.172Z,88.80
2022-11-04T11:42:11.556Z,88.60
2022-11-04T11:44:47.540Z,88.40
2022-11-04T11:47:30.552Z,89.60
2022-11-04T11:50:16.983Z,90.30
2022-11-04T11:52:50.282Z,89.70
2022-11-04T11:55:29.087Z,89.20
2022-11-04T12:01:34.374Z,88.70
2022-11-04T12:09:49.260Z,88.50
2022-11-04T12:12:55.918Z,88.80
2022-11-04T12:15:30.092Z,89.60
2022-11-04T12:17:58.129Z,90.80
2022-11-04T12:20:39.608Z,92.60
2022-11-04T12:23:27.009Z,91.10
2022-11-04T12:26:13.212Z,90.40
2022-11-04T12:29:05.217Z,90.30
2022-11-04T12:31:47.915Z,90.20
2022-11-04T12:34:20.697Z,90.00
2022-11-04T12:37:16.720Z,89.90
2022-11-04T12:40:07.457Z,89.70
2022-11-04T12:42:40.131Z,89.50
2022-11-04T12:45:15.967Z,89.40
2022-11-04T12:47:46.419Z,89.30
2022-11-04T12:50:31.467Z,89.30
2022-11-04T12:53:04.397Z,89.30
2022-11-04T12:55:49.760Z,90.00
2022-11-04T12:58:19.762Z,89.20
2022-11-04T13:00:48.613Z,89.40
2022-11-04T13:03:30.152Z,89.10
2022-11-04T13:05:59.836Z,89.10
2022-11-04T13:08:52.748Z,89.10
2022-11-04T13:11:29.605Z,89.20
2022-11-04T13:14:02.519Z,89.20
2022-11-04T13:16:30.687Z,90.70
2022-11-04T13:18:58.500Z,90.00
2022-11-04T13:21:27.860Z,90.10
2022-11-04T13:24:17.365Z,90.50
2022-11-04T13:26:44.580Z,89.70
2022-11-04T13:29:14.582Z,90.50
2022-11-04T13:32:01.514Z,91.40
2022-11-04T13:34:38.100Z,91.00
2022-11-04T13:37:25.370Z,91.00
2022-11-04T13:40:04.466Z,90.50
2022-11-04T13:42:35.713Z,90.50
2022-11-04T13:45:14.333Z,90.70
2022-11-04T13:47:53.278Z,90.60
2022-11-04T13:50:32.047Z,91.20
2022-11-04T13:52:58.827Z,91.70
2022-11-04T13:55:26.558Z,91.90
2022-11-04T13:58:00.720Z,91.30
2022-11-04T14:00:28.860Z,90.90
2022-11-04T14:02:58.269Z,90.70
2022-11-04T14:05:28.458Z,90.60
2022-11-04T14:08:01.409Z,90.30
2022-11-04T14:10:49.669Z,90.30
2022-11-04T14:13:42.472Z,90.30
2022-11-04T14:16:24.305Z,90.20
2022-11-04T14:18:56.595Z,89.90
2022-11-04T14:21:27.610Z,89.00
2022-11-04T14:23:57.396Z,88.90
2022-11-04T14:26:27.645Z,88.30
2022-11-04T14:29:02.764Z,87.60
2022-11-04T14:31:37.000Z,88.20
2022-11-04T14:34:03.733Z,89.50
2022-11-04T14:36:35.124Z,89.80
2022-11-04T14:39:11.012Z,87.70
2022-11-04T14:41:40.691Z,86.00
2022-11-04T14:44:30.640Z,85.80
2022-11-04T14:47:22.365Z,85.40
2022-11-04T14:49:50.522Z,86.50
2022-11-04T14:52:43.608Z,86.20
2022-11-04T14:55:29.468Z,85.20
2022-11-04T14:58:16.541Z,85.50
2022-11-04T15:00:49.194Z,85.80
2022-11-04T15:03:51.972Z,85.90
2022-11-04T15:06:06.352Z,85.30
2022-11-04T15:08:42.386Z,85.10
2022-11-04T15:11:17.519Z,84.70
2022-11-04T15:13:51.517Z,84.60
2022-11-04T15:16:25.943Z,84.60
2022-11-04T15:18:53.964Z,84.60
2022-11-04T15:21:21.143Z,84.50
2022-11-04T15:23:54.613Z,84.30
2022-11-04T15:26:30.439Z,84.40
2022-11-04T15:28:59.962Z,83.40
2022-11-04T15:31:33.618Z,83.40
2022-11-04T15:34:06.505Z,84.70
2022-11-04T15:36:42.637Z,84.30
2022-11-04T15:39:23.172Z,84.20
2022-11-04T15:42:09.705Z,84.00
2022-11-04T15:44:37.787Z,84.10
2022-11-04T15:47:28.522Z,83.60
2022-11-04T15:50:03.205Z,84.20
2022-11-04T15:52:30.570Z,81.70
2022-11-04T15:54:59.281Z,82.60
2022-11-04T15:57:34.112Z,83.70
2022-11-04T16:00:04.278Z,83.70
2022-11-04T16:02:32.727Z,84.10
2022-11-04T16:05:05.128Z,84.20
2022-11-04T16:07:35.858Z,84.50
2022-11-04T16:10:08.476Z,85.00
2022-11-04T16:12:36.598Z,85.10
2022-11-04T16:15:03.519Z,85.10
2022-11-04T16:17:31.441Z,85.30
2022-11-04T16:20:03.817Z,86.10
2022-11-04T16:22:33.375Z,86.50
2022-11-04T16:25:02.111Z,86.60
2022-11-04T16:27:29.635Z,86.80
2022-11-04T16:30:06.581Z,86.80
2022-11-04T16:32:43.278Z,86.80
2022-11-04T16:35:17.582Z,86.90
2022-11-04T16:37:44.405Z,86.80
2022-11-04T16:40:11.487Z,87.00
2022-11-04T16:42:38.259Z,87.00
2022-11-04T16:45:05.387Z,87.50
2022-11-04T16:47:32.211Z,87.50
2022-11-04T16:50:01.319Z,87.30
2022-11-04T16:52:28.792Z,87.50
2022-11-04T16:54:56.617Z,87.40
2022-11-04T16:57:23.962Z,87.60
2022-11-04T16:59:50.720Z,87.40
2022-11-04T17:02:31.764Z,87.40
2022-11-04T17:04:58.920Z,87.40
2022-11-04T17:07:40.588Z,87.50
2022-11-04T17:10:17.152Z,87.60
2022-11-04T17:12:44.016Z,87.70
2022-11-04T17:15:11.193Z,87.80
2022-11-04T17:17:37.934Z,87.80
2022-11-04T17:20:05.011Z,87.70
2022-11-04T17:22:32.836Z,87.70
2022-11-04T17:25:01.438Z,87.90
2022-11-04T17:27:31.310Z,88.00
2022-11-04T17:29:58.222Z,87.90
2022-11-04T17:32:24.983Z,87.40
2022-11-04T17:34:51.875Z,87.60
2022-11-04T17:37:18.653Z,87.10
2022-11-04T17:39:45.367Z,86.60
2022-11-04T17:42:30.963Z,86.80
2022-11-04T17:44:57.674Z,86.60
2022-11-04T17:47:24.364Z,86.40
2022-11-04T17:49:51.100Z,85.70
2022-11-04T17:52:18.781Z,85.90
2022-11-04T17:54:45.605Z,85.80
2022-11-04T17:57:12.404Z,86.20
2022-11-04T17:59:39.153Z,87.60
2022-11-04T18:02:06.034Z,86.70
2022-11-04T18:04:33.010Z,86.20
2022-11-04T18:07:03.075Z,85.80
2022-11-04T18:09:33.748Z,86.00
2022-11-04T18:12:20.089Z,86.20
2022-11-04T18:14:46.801Z,86.00
2022-11-04T18:17:13.612Z,85.80
2022-11-04T18:19:40.358Z,85.90
2022-11-04T18:22:07.188Z,85.90
2022-11-04T18:24:34.142Z,85.80
2022-11-04T18:27:01.719Z,90.30
2022-11-04T18:29:28.429Z,87.20
2022-11-04T18:31:55.381Z,86.90
2022-11-04T18:34:22.397Z,86.60
2022-11-04T18:36:49.439Z,86.50
2022-11-04T18:39:17.463Z,86.70
2022-11-04T18:41:45.677Z,86.60
2022-11-04T18:44:22.376Z,86.80
2022-11-04T18:46:49.382Z,86.80
2022-11-04T18:49:17.457Z,86.80
2022-11-04T18:51:44.426Z,86.80
2022-11-04T18:54:11.708Z,86.80
2022-11-04T18:56:38.562Z,86.80
2022-11-04T18:59:07.587Z,86.00
2022-11-04T19:01:34.632Z,85.80
2022-11-04T19:04:03.058Z,85.80
2022-11-04T19:06:33.463Z,85.80
2022-11-04T19:09:13.469Z,85.90
2022-11-04T19:11:46.763Z,85.90
2022-11-04T19:14:14.827Z,86.00
2022-11-04T19:16:42.135Z,85.90
2022-11-04T19:19:09.642Z,86.00
2022-11-04T19:21:36.457Z,86.20
2022-11-04T19:24:03.359Z,86.30
2022-11-04T19:26:32.803Z,86.30
2022-11-04T19:29:02.037Z,86.30
2022-11-04T19:31:29.807Z,86.40
2022-11-04T19:33:58.379Z,86.20
2022-11-04T19:36:25.349Z,86.30
2022-11-04T19:38:55.502Z,86.20
2022-11-04T19:41:41.468Z,86.80
2022-11-04T19:44:10.426Z,88.20
2022-11-04T19:46:37.400Z,90.00
2022-11-04T19:49:04.439Z,89.90
2022-11-04T19:51:36.431Z,90.00
2022-11-04T19:54:03.546Z,89.10
2022-11-04T19:56:32.139Z,91.10
2022-11-04T19:59:03.145Z,91.80
2022-11-04T20:01:34.938Z,92.90
2022-11-04T20:04:03.038Z,91.90
2022-11-04T20:06:32.486Z,92.30
2022-11-04T20:09:05.197Z,91.70
2022-11-04T20:11:33.639Z,91.30
2022-11-04T20:14:07.796Z,91.20
2022-11-04T20:16:39.298Z,91.10
2022-11-04T20:19:06.263Z,91.00
2022-11-04T20:21:36.567Z,90.70
2022-11-04T20:24:05.914Z,90.60
2022-11-04T20:26:34.163Z,90.50
2022-11-04T20:29:01.936Z,90.30
2022-11-04T20:31:32.386Z,90.10
2022-11-04T20:33:59.391Z,90.50
2022-11-04T20:36:27.143Z,90.10
2022-11-04T20:38:57.551Z,89.70
2022-11-04T20:41:24.336Z,89.50
2022-11-04T20:43:51.338Z,88.90
2022-11-04T20:46:19.773Z,88.80
2022-11-04T20:48:47.689Z,87.80
2022-11-04T20:51:21.849Z,88.70
2022-11-04T20:53:48.947Z,87.80
2022-11-04T20:56:17.423Z,86.70
2022-11-04T20:58:44.801Z,86.50
2022-11-04T21:01:16.407Z,86.60
2022-11-04T21:03:43.792Z,87.00
2022-11-04T21:06:11.341Z,87.10
2022-11-04T21:08:38.108Z,88.70
2022-11-04T21:11:05.432Z,88.20
2022-11-04T21:13:34.111Z,88.00
2022-11-04T21:16:01.055Z,88.00
2022-11-04T21:18:27.906Z,88.00
2022-11-04T21:20:54.688Z,87.40
2022-11-04T21:23:21.570Z,87.20
2022-11-04T21:25:52.308Z,88.60
2022-11-04T21:28:19.009Z,87.60
2022-11-04T21:30:48.112Z,87.50
2022-11-04T21:33:15.062Z,86.90
2022-11-04T21:35:43.110Z,87.00
2022-11-04T21:38:14.430Z,87.60
2022-11-04T21:40:41.390Z,87.90
2022-11-04T21:43:08.378Z,88.30
2022-11-04T21:45:35.749Z,89.00
2022-11-04T21:48:03.775Z,89.20
2022-11-04T21:50:30.584Z,89.40
2022-11-04T21:52:57.834Z,89.60
2022-11-04T21:55:25.074Z,89.60
2022-11-04T21:57:51.780Z,90.30
2022-11-04T22:00:18.556Z,90.80
2022-11-04T22:02:50.684Z,90.80
2022-11-04T22:05:17.632Z,90.60
2022-11-04T22:08:03.160Z,90.40
2022-11-04T22:10:30.152Z,90.20
2022-11-04T22:12:56.901Z,90.00
2022-11-04T22:15:42.008Z,90.00
2022-11-04T22:18:08.729Z,90.00
2022-11-04T22:20:37.034Z,90.00
2022-11-04T22:23:03.814Z,90.10
2022-11-04T22:25:30.861Z,90.10
2022-11-04T22:27:57.597Z,90.10
2022-11-04T22:30:24.473Z,90.50
2022-11-04T22:32:52.117Z,90.20
2022-11-04T22:35:18.833Z,90.20
2022-11-04T22:37:45.592Z,90.30
2022-11-04T22:40:12.674Z,90.40
2022-11-04T22:42:39.384Z,90.50
2022-11-04T22:45:11.224Z,90.40
2022-11-04T22:47:41.485Z,90.50
2022-11-04T22:50:09.125Z,90.50
2022-11-04T22:52:37.167Z,90.50
2022-11-04T22:55:04.007Z,90.60
2022-11-04T22:57:30.721Z,90.50
2022-11-04T22:59:57.488Z,90.50
2022-11-04T23:02:24.321Z,90.50
2022-11-04T23:04:51.134Z,90.60
2022-11-04T23:07:18.029Z,90.60
2022-11-04T23:10:03.360Z,90.60
2022-11-04T23:12:48.675Z,90.70
2022-11-04T23:15:44.418Z,90.60
2022-11-04T23:18:29.814Z,90.60
2022-11-04T23:21:15.038Z,90.60
2022-11-04T23:24:00.651Z,90.70
2022-11-04T23:26:28.005Z,90.70
2022-11-04T23:29:13.313Z,90.70
2022-11-04T23:31:40.085Z,90.70
2022-11-04T23:34:25.241Z,90.60
2022-11-04T23:37:10.715Z,90.60
2022-11-04T23:39:38.419Z,90.60
2022-11-04T23:42:17.126Z,90.60
2022-11-04T23:45:06.217Z,90.60
2022-11-04T23:47:53.338Z,90.60
2022-11-04T23:50:39.125Z,90.60
2022-11-04T23:53:24.495Z,90.90
2022-11-04T23:56:10.511Z,91.00
2022-11-04T23:58:56.224Z,90.60
